sensor_id;sensor_type;location;lat;lon;timestamp;P1;durP1;ratioP1;P2;durP2;ratioP2
30458;SDS011;17254;50.976;7.034;2022-07-01T00:00:27;8.70;;;5.80;;
30458;SDS011;17254;50.976;7.034;2022-07-01T00:00:59;11.95;;;6.03;;
30458;SDS011;17254;50.976;7.034;2022-07-01T00:01:30;10.55;;;5.22;;
30458;SDS011;17254;50.976;7.034;2022-07-01T00:02:01;9.52;;;5.90;;
30458;SDS011;17254;50.976;7.034;2022-07-01T00:02:34;7.20;;;4.93;;
30458;SDS011;17254;50.976;7.034;2022-07-01T00:03:06;11.25;;;5.93;;
30458;SDS011;17254;50.976;7.034;2022-07-01T00:03:38;10.70;;;5.78;;
30458;SDS011;17254;50.976;7.034;2022-07-01T00:04:09;8.98;;;5.97;;
30458;SDS011;17254;50.976;7.034;2022-07-01T00:04:40;11.52;;;6.15;;
30458;SDS011;17254;50.976;7.034;2022-07-01T00:05:31;16.90;;;5.30;;
30458;SDS011;17254;50.976;7.034;2022-07-01T00:06:02;12.52;;;6.30;;
30458;SDS011;17254;50.976;7.034;2022-07-01T00:06:34;12.25;;;5.90;;
30458;SDS011;17254;50.976;7.034;2022-07-01T00:07:06;8.05;;;5.78;;
30458;SDS011;17254;50.976;7.034;2022-07-01T00:07:37;9.43;;;6.00;;
30458;SDS011;17254;50.976;7.034;2022-07-01T00:08:09;7.55;;;5.47;;
30458;SDS011;17254;50.976;7.034;2022-07-01T00:08:40;9.48;;;5.50;;
30458;SDS011;17254;50.976;7.034;2022-07-01T00:09:11;11.02;;;6.00;;
30458;SDS011;17254;50.976;7.034;2022-07-01T00:09:43;13.68;;;5.38;;
30458;SDS011;17254;50.976;7.034;2022-07-01T00:10:14;10.18;;;6.18;;
30458;SDS011;17254;50.976;7.034;2022-07-01T00:10:47;10.60;;;6.13;;
30458;SDS011;17254;50.976;7.034;2022-07-01T00:11:19;7.57;;;5.07;;
30458;SDS011;17254;50.976;7.034;2022-07-01T00:11:51;9.80;;;6.07;;
30458;SDS011;17254;50.976;7.034;2022-07-01T00:12:23;10.07;;;5.43;;
30458;SDS011;17254;50.976;7.034;2022-07-01T00:12:53;14.10;;;6.60;;
30458;SDS011;17254;50.976;7.034;2022-07-01T00:13:24;11.80;;;5.97;;
30458;SDS011;17254;50.976;7.034;2022-07-01T00:13:57;10.82;;;6.55;;
30458;SDS011;17254;50.976;7.034;2022-07-01T00:14:28;11.70;;;6.03;;
30458;SDS011;17254;50.976;7.034;2022-07-01T00:14:59;12.38;;;6.47;;
30458;SDS011;17254;50.976;7.034;2022-07-01T00:15:31;13.73;;;6.03;;
30458;SDS011;17254;50.976;7.034;2022-07-01T00:16:02;16.02;;;7.50;;
30458;SDS011;17254;50.976;7.034;2022-07-01T00:16:34;8.02;;;5.78;;
30458;SDS011;17254;50.976;7.034;2022-07-01T00:17:06;8.20;;;5.30;;
30458;SDS011;17254;50.976;7.034;2022-07-01T00:17:37;9.20;;;5.57;;
30458;SDS011;17254;50.976;7.034;2022-07-01T00:18:11;13.15;;;6.82;;
30458;SDS011;17254;50.976;7.034;2022-07-01T00:18:43;11.05;;;6.18;;
30458;SDS011;17254;50.976;7.034;2022-07-01T00:19:14;11.48;;;5.40;;
30458;SDS011;17254;50.976;7.034;2022-07-01T00:19:46;14.57;;;7.03;;
30458;SDS011;17254;50.976;7.034;2022-07-01T00:20:18;12.45;;;6.47;;
30458;SDS011;17254;50.976;7.034;2022-07-01T00:20:49;16.42;;;7.35;;
30458;SDS011;17254;50.976;7.034;2022-07-01T00:21:22;11.98;;;6.53;;
30458;SDS011;17254;50.976;7.034;2022-07-01T00:21:53;10.93;;;6.47;;
30458;SDS011;17254;50.976;7.034;2022-07-01T00:22:24;15.30;;;7.40;;
30458;SDS011;17254;50.976;7.034;2022-07-01T00:22:58;13.93;;;6.90;;
30458;SDS011;17254;50.976;7.034;2022-07-01T00:23:29;14.25;;;7.32;;
30458;SDS011;17254;50.976;7.034;2022-07-01T00:24:01;12.05;;;6.90;;
30458;SDS011;17254;50.976;7.034;2022-07-01T00:24:33;13.98;;;7.90;;
30458;SDS011;17254;50.976;7.034;2022-07-01T00:25:05;12.10;;;6.93;;
30458;SDS011;17254;50.976;7.034;2022-07-01T00:25:37;17.27;;;6.85;;
30458;SDS011;17254;50.976;7.034;2022-07-01T00:26:09;13.55;;;7.18;;
30458;SDS011;17254;50.976;7.034;2022-07-01T00:26:40;16.90;;;7.30;;
30458;SDS011;17254;50.976;7.034;2022-07-01T00:27:11;13.38;;;6.53;;
30458;SDS011;17254;50.976;7.034;2022-07-01T00:27:44;11.20;;;6.97;;
30458;SDS011;17254;50.976;7.034;2022-07-01T00:28:15;11.93;;;6.30;;
30458;SDS011;17254;50.976;7.034;2022-07-01T00:28:46;14.02;;;6.25;;
30458;SDS011;17254;50.976;7.034;2022-07-01T00:29:18;13.23;;;6.80;;
30458;SDS011;17254;50.976;7.034;2022-07-01T00:29:49;11.27;;;7.05;;
30458;SDS011;17254;50.976;7.034;2022-07-01T00:30:20;12.32;;;7.18;;
30458;SDS011;17254;50.976;7.034;2022-07-01T00:30:53;14.23;;;6.95;;
30458;SDS011;17254;50.976;7.034;2022-07-01T00:31:25;14.45;;;7.78;;
30458;SDS011;17254;50.976;7.034;2022-07-01T00:31:56;18.30;;;8.05;;
30458;SDS011;17254;50.976;7.034;2022-07-01T00:32:28;17.02;;;7.43;;
30458;SDS011;17254;50.976;7.034;2022-07-01T00:32:59;16.95;;;7.25;;
30458;SDS011;17254;50.976;7.034;2022-07-01T00:33:31;15.88;;;8.20;;
30458;SDS011;17254;50.976;7.034;2022-07-01T00:34:03;12.68;;;6.90;;
30458;SDS011;17254;50.976;7.034;2022-07-01T00:34:34;14.10;;;8.45;;
30458;SDS011;17254;50.976;7.034;2022-07-01T00:35:06;17.05;;;8.85;;
30458;SDS011;17254;50.976;7.034;2022-07-01T00:35:39;18.15;;;8.35;;
30458;SDS011;17254;50.976;7.034;2022-07-01T00:36:10;13.18;;;7.97;;
30458;SDS011;17254;50.976;7.034;2022-07-01T00:36:41;14.77;;;8.45;;
30458;SDS011;17254;50.976;7.034;2022-07-01T00:37:14;13.27;;;7.32;;
30458;SDS011;17254;50.976;7.034;2022-07-01T00:37:45;17.33;;;9.73;;
30458;SDS011;17254;50.976;7.034;2022-07-01T00:38:16;18.95;;;8.48;;
30458;SDS011;17254;50.976;7.034;2022-07-01T00:38:48;15.07;;;8.93;;
30458;SDS011;17254;50.976;7.034;2022-07-01T00:39:19;16.48;;;8.27;;
30458;SDS011;17254;50.976;7.034;2022-07-01T00:39:50;17.90;;;8.65;;
30458;SDS011;17254;50.976;7.034;2022-07-01T00:40:22;17.13;;;8.95;;
30458;SDS011;17254;50.976;7.034;2022-07-01T00:40:54;15.90;;;8.93;;
30458;SDS011;17254;50.976;7.034;2022-07-01T00:41:25;19.27;;;8.40;;
30458;SDS011;17254;50.976;7.034;2022-07-01T00:41:58;13.32;;;8.05;;
30458;SDS011;17254;50.976;7.034;2022-07-01T00:42:30;16.95;;;8.68;;
30458;SDS011;17254;50.976;7.034;2022-07-01T00:43:01;11.68;;;7.82;;
30458;SDS011;17254;50.976;7.034;2022-07-01T00:43:34;13.57;;;7.47;;
30458;SDS011;17254;50.976;7.034;2022-07-01T00:44:06;15.57;;;8.50;;
30458;SDS011;17254;50.976;7.034;2022-07-01T00:44:45;14.27;;;8.52;;
30458;SDS011;17254;50.976;7.034;2022-07-01T00:45:17;23.35;;;9.10;;
30458;SDS011;17254;50.976;7.034;2022-07-01T00:45:48;13.10;;;7.82;;
30458;SDS011;17254;50.976;7.034;2022-07-01T00:46:20;13.82;;;8.75;;
30458;SDS011;17254;50.976;7.034;2022-07-01T00:46:52;14.73;;;8.48;;
30458;SDS011;17254;50.976;7.034;2022-07-01T00:47:24;17.85;;;8.90;;
30458;SDS011;17254;50.976;7.034;2022-07-01T00:47:55;14.52;;;8.35;;
30458;SDS011;17254;50.976;7.034;2022-07-01T00:48:28;13.32;;;6.82;;
30458;SDS011;17254;50.976;7.034;2022-07-01T00:49:00;18.08;;;9.48;;
30458;SDS011;17254;50.976;7.034;2022-07-01T00:49:32;15.90;;;8.80;;
30458;SDS011;17254;50.976;7.034;2022-07-01T00:50:05;13.68;;;8.23;;
30458;SDS011;17254;50.976;7.034;2022-07-01T00:50:38;14.10;;;9.00;;
30458;SDS011;17254;50.976;7.034;2022-07-01T00:51:10;14.10;;;9.00;;
30458;SDS011;17254;50.976;7.034;2022-07-01T00:51:41;23.48;;;9.90;;
30458;SDS011;17254;50.976;7.034;2022-07-01T00:52:14;12.13;;;8.00;;
30458;SDS011;17254;50.976;7.034;2022-07-01T00:52:46;17.90;;;9.25;;
30458;SDS011;17254;50.976;7.034;2022-07-01T00:53:17;14.57;;;8.52;;
30458;SDS011;17254;50.976;7.034;2022-07-01T00:53:48;16.70;;;8.88;;
30458;SDS011;17254;50.976;7.034;2022-07-01T00:54:21;13.63;;;8.75;;
30458;SDS011;17254;50.976;7.034;2022-07-01T00:54:52;16.90;;;9.05;;
30458;SDS011;17254;50.976;7.034;2022-07-01T00:55:26;17.95;;;9.05;;
30458;SDS011;17254;50.976;7.034;2022-07-01T00:55:57;16.63;;;9.43;;
30458;SDS011;17254;50.976;7.034;2022-07-01T00:56:28;17.52;;;8.70;;
30458;SDS011;17254;50.976;7.034;2022-07-01T00:57:04;12.70;;;8.57;;
30458;SDS011;17254;50.976;7.034;2022-07-01T00:57:38;14.25;;;8.27;;
30458;SDS011;17254;50.976;7.034;2022-07-01T00:58:10;16.08;;;9.57;;
30458;SDS011;17254;50.976;7.034;2022-07-01T00:58:42;16.60;;;10.02;;
30458;SDS011;17254;50.976;7.034;2022-07-01T00:59:13;18.20;;;9.90;;
30458;SDS011;17254;50.976;7.034;2022-07-01T00:59:44;17.73;;;9.27;;
30458;SDS011;17254;50.976;7.034;2022-07-01T01:00:17;18.80;;;10.57;;
30458;SDS011;17254;50.976;7.034;2022-07-01T01:00:51;16.00;;;9.30;;
30458;SDS011;17254;50.976;7.034;2022-07-01T01:01:22;20.02;;;9.00;;
30458;SDS011;17254;50.976;7.034;2022-07-01T01:01:54;20.80;;;10.82;;
30458;SDS011;17254;50.976;7.034;2022-07-01T01:02:25;29.13;;;9.98;;
30458;SDS011;17254;50.976;7.034;2022-07-01T01:02:56;20.23;;;10.27;;
30458;SDS011;17254;50.976;7.034;2022-07-01T01:03:28;17.25;;;10.57;;
30458;SDS011;17254;50.976;7.034;2022-07-01T01:04:02;15.27;;;9.77;;
30458;SDS011;17254;50.976;7.034;2022-07-01T01:04:33;16.10;;;9.75;;
30458;SDS011;17254;50.976;7.034;2022-07-01T01:05:06;17.13;;;10.40;;
30458;SDS011;17254;50.976;7.034;2022-07-01T01:05:38;18.08;;;9.25;;
30458;SDS011;17254;50.976;7.034;2022-07-01T01:06:10;18.88;;;9.95;;
30458;SDS011;17254;50.976;7.034;2022-07-01T01:06:42;15.48;;;9.43;;
30458;SDS011;17254;50.976;7.034;2022-07-01T01:07:13;13.98;;;9.20;;
30458;SDS011;17254;50.976;7.034;2022-07-01T01:07:45;16.23;;;9.45;;
30458;SDS011;17254;50.976;7.034;2022-07-01T01:08:17;16.77;;;9.57;;
30458;SDS011;17254;50.976;7.034;2022-07-01T01:08:48;14.10;;;9.27;;
30458;SDS011;17254;50.976;7.034;2022-07-01T01:09:20;24.88;;;11.55;;
30458;SDS011;17254;50.976;7.034;2022-07-01T01:09:52;16.65;;;9.30;;
30458;SDS011;17254;50.976;7.034;2022-07-01T01:10:23;16.35;;;10.20;;
30458;SDS011;17254;50.976;7.034;2022-07-01T01:10:56;15.35;;;10.20;;
30458;SDS011;17254;50.976;7.034;2022-07-01T01:11:28;15.70;;;8.88;;
30458;SDS011;17254;50.976;7.034;2022-07-01T01:12:00;16.95;;;10.50;;
30458;SDS011;17254;50.976;7.034;2022-07-01T01:12:32;17.65;;;9.35;;
30458;SDS011;17254;50.976;7.034;2022-07-01T01:13:05;13.98;;;9.05;;
30458;SDS011;17254;50.976;7.034;2022-07-01T01:13:36;15.63;;;10.23;;
30458;SDS011;17254;50.976;7.034;2022-07-01T01:14:09;16.98;;;9.60;;
30458;SDS011;17254;50.976;7.034;2022-07-01T01:14:45;19.35;;;10.45;;
30458;SDS011;17254;50.976;7.034;2022-07-01T01:15:17;16.67;;;9.50;;
30458;SDS011;17254;50.976;7.034;2022-07-01T01:15:48;16.05;;;8.85;;
30458;SDS011;17254;50.976;7.034;2022-07-01T01:16:22;15.60;;;9.38;;
30458;SDS011;17254;50.976;7.034;2022-07-01T01:16:54;19.17;;;9.98;;
30458;SDS011;17254;50.976;7.034;2022-07-01T01:17:25;13.88;;;8.40;;
30458;SDS011;17254;50.976;7.034;2022-07-01T01:17:58;17.80;;;9.60;;
30458;SDS011;17254;50.976;7.034;2022-07-01T01:18:29;18.38;;;8.95;;
30458;SDS011;17254;50.976;7.034;2022-07-01T01:19:03;17.13;;;9.15;;
30458;SDS011;17254;50.976;7.034;2022-07-01T01:19:36;14.77;;;9.23;;
30458;SDS011;17254;50.976;7.034;2022-07-01T01:20:07;13.32;;;8.60;;
30458;SDS011;17254;50.976;7.034;2022-07-01T01:20:40;16.13;;;9.80;;
30458;SDS011;17254;50.976;7.034;2022-07-01T01:21:12;15.10;;;8.68;;
30458;SDS011;17254;50.976;7.034;2022-07-01T01:21:44;19.63;;;9.15;;
30458;SDS011;17254;50.976;7.034;2022-07-01T01:22:15;17.17;;;9.82;;
30458;SDS011;17254;50.976;7.034;2022-07-01T01:22:48;23.55;;;9.85;;
30458;SDS011;17254;50.976;7.034;2022-07-01T01:23:19;16.55;;;9.27;;
30458;SDS011;17254;50.976;7.034;2022-07-01T01:23:51;17.77;;;9.50;;
30458;SDS011;17254;50.976;7.034;2022-07-01T01:24:23;17.63;;;9.75;;
30458;SDS011;17254;50.976;7.034;2022-07-01T01:24:54;18.73;;;9.93;;
30458;SDS011;17254;50.976;7.034;2022-07-01T01:25:25;15.10;;;9.13;;
30458;SDS011;17254;50.976;7.034;2022-07-01T01:25:57;18.83;;;10.88;;
30458;SDS011;17254;50.976;7.034;2022-07-01T01:26:28;17.58;;;10.23;;
30458;SDS011;17254;50.976;7.034;2022-07-01T01:26:59;19.10;;;10.57;;
30458;SDS011;17254;50.976;7.034;2022-07-01T01:27:31;18.20;;;9.40;;
30458;SDS011;17254;50.976;7.034;2022-07-01T01:28:03;15.15;;;9.70;;
30458;SDS011;17254;50.976;7.034;2022-07-01T01:28:35;18.05;;;11.48;;
30458;SDS011;17254;50.976;7.034;2022-07-01T01:29:07;17.20;;;10.20;;
30458;SDS011;17254;50.976;7.034;2022-07-01T01:29:38;23.33;;;10.77;;
30458;SDS011;17254;50.976;7.034;2022-07-01T01:30:10;19.75;;;10.93;;
30458;SDS011;17254;50.976;7.034;2022-07-01T01:30:43;18.05;;;9.93;;
30458;SDS011;17254;50.976;7.034;2022-07-01T01:31:14;17.40;;;11.25;;
30458;SDS011;17254;50.976;7.034;2022-07-01T01:31:45;16.38;;;10.73;;
30458;SDS011;17254;50.976;7.034;2022-07-01T01:32:17;17.50;;;9.73;;
30458;SDS011;17254;50.976;7.034;2022-07-01T01:32:48;18.67;;;10.48;;
30458;SDS011;17254;50.976;7.034;2022-07-01T01:33:20;17.70;;;10.27;;
30458;SDS011;17254;50.976;7.034;2022-07-01T01:33:52;19.30;;;10.95;;
30458;SDS011;17254;50.976;7.034;2022-07-01T01:34:23;21.02;;;10.90;;
30458;SDS011;17254;50.976;7.034;2022-07-01T01:34:54;22.15;;;11.95;;
30458;SDS011;17254;50.976;7.034;2022-07-01T01:35:26;17.95;;;11.75;;
30458;SDS011;17254;50.976;7.034;2022-07-01T01:35:58;15.57;;;10.10;;
30458;SDS011;17254;50.976;7.034;2022-07-01T01:36:29;23.38;;;11.48;;
30458;SDS011;17254;50.976;7.034;2022-07-01T01:37:02;18.48;;;11.60;;
30458;SDS011;17254;50.976;7.034;2022-07-01T01:37:34;19.45;;;11.60;;
30458;SDS011;17254;50.976;7.034;2022-07-01T01:38:05;22.15;;;12.27;;
30458;SDS011;17254;50.976;7.034;2022-07-01T01:38:37;16.02;;;11.23;;
30458;SDS011;17254;50.976;7.034;2022-07-01T01:39:08;17.98;;;10.05;;
30458;SDS011;17254;50.976;7.034;2022-07-01T01:39:40;20.65;;;11.73;;
30458;SDS011;17254;50.976;7.034;2022-07-01T01:40:12;20.85;;;11.68;;
30458;SDS011;17254;50.976;7.034;2022-07-01T01:40:44;19.63;;;10.88;;
30458;SDS011;17254;50.976;7.034;2022-07-01T01:41:15;22.10;;;11.68;;
30458;SDS011;17254;50.976;7.034;2022-07-01T01:41:46;18.63;;;11.27;;
30458;SDS011;17254;50.976;7.034;2022-07-01T01:42:18;22.83;;;11.60;;
30458;SDS011;17254;50.976;7.034;2022-07-01T01:42:49;26.48;;;12.48;;
30458;SDS011;17254;50.976;7.034;2022-07-01T01:43:21;20.13;;;11.55;;
30458;SDS011;17254;50.976;7.034;2022-07-01T01:43:52;24.88;;;11.77;;
30458;SDS011;17254;50.976;7.034;2022-07-01T01:44:23;27.38;;;12.18;;
30458;SDS011;17254;50.976;7.034;2022-07-01T01:44:54;19.55;;;11.73;;
30458;SDS011;17254;50.976;7.034;2022-07-01T01:45:26;29.85;;;11.55;;
30458;SDS011;17254;50.976;7.034;2022-07-01T01:45:58;24.05;;;12.43;;
30458;SDS011;17254;50.976;7.034;2022-07-01T01:46:31;23.80;;;11.45;;
30458;SDS011;17254;50.976;7.034;2022-07-01T01:47:03;19.00;;;11.52;;
30458;SDS011;17254;50.976;7.034;2022-07-01T01:47:35;21.35;;;11.63;;
30458;SDS011;17254;50.976;7.034;2022-07-01T01:48:06;19.20;;;11.50;;
30458;SDS011;17254;50.976;7.034;2022-07-01T01:48:37;20.55;;;11.68;;
30458;SDS011;17254;50.976;7.034;2022-07-01T01:49:10;23.52;;;12.82;;
30458;SDS011;17254;50.976;7.034;2022-07-01T01:49:41;22.40;;;11.40;;
30458;SDS011;17254;50.976;7.034;2022-07-01T01:50:12;20.27;;;11.45;;
30458;SDS011;17254;50.976;7.034;2022-07-01T01:50:45;22.65;;;11.75;;
30458;SDS011;17254;50.976;7.034;2022-07-01T01:51:17;20.35;;;12.25;;
30458;SDS011;17254;50.976;7.034;2022-07-01T01:51:49;20.92;;;11.98;;
30458;SDS011;17254;50.976;7.034;2022-07-01T01:52:21;25.55;;;12.38;;
30458;SDS011;17254;50.976;7.034;2022-07-01T01:52:52;29.13;;;12.52;;
30458;SDS011;17254;50.976;7.034;2022-07-01T01:53:24;19.15;;;12.15;;
30458;SDS011;17254;50.976;7.034;2022-07-01T01:53:56;21.67;;;11.52;;
30458;SDS011;17254;50.976;7.034;2022-07-01T01:54:27;22.05;;;10.77;;
30458;SDS011;17254;50.976;7.034;2022-07-01T01:54:58;18.85;;;12.35;;
30458;SDS011;17254;50.976;7.034;2022-07-01T01:55:30;19.23;;;11.60;;
30458;SDS011;17254;50.976;7.034;2022-07-01T01:56:01;22.73;;;11.80;;
30458;SDS011;17254;50.976;7.034;2022-07-01T01:56:34;18.88;;;10.63;;
30458;SDS011;17254;50.976;7.034;2022-07-01T01:57:06;26.23;;;12.25;;
30458;SDS011;17254;50.976;7.034;2022-07-01T01:57:37;18.95;;;11.82;;
30458;SDS011;17254;50.976;7.034;2022-07-01T01:58:08;18.85;;;11.45;;
30458;SDS011;17254;50.976;7.034;2022-07-01T01:58:40;22.05;;;11.63;;
30458;SDS011;17254;50.976;7.034;2022-07-01T01:59:13;21.13;;;12.38;;
30458;SDS011;17254;50.976;7.034;2022-07-01T01:59:44;25.83;;;11.45;;
30458;SDS011;17254;50.976;7.034;2022-07-01T02:00:16;25.50;;;13.23;;
30458;SDS011;17254;50.976;7.034;2022-07-01T02:00:47;19.60;;;11.77;;
30458;SDS011;17254;50.976;7.034;2022-07-01T02:01:19;17.75;;;11.10;;
30458;SDS011;17254;50.976;7.034;2022-07-01T02:01:51;23.77;;;12.68;;
30458;SDS011;17254;50.976;7.034;2022-07-01T02:02:22;29.33;;;12.02;;
30458;SDS011;17254;50.976;7.034;2022-07-01T02:02:53;27.00;;;12.02;;
30458;SDS011;17254;50.976;7.034;2022-07-01T02:03:24;20.70;;;11.52;;
30458;SDS011;17254;50.976;7.034;2022-07-01T02:03:56;19.42;;;11.57;;
30458;SDS011;17254;50.976;7.034;2022-07-01T02:04:29;20.35;;;11.60;;
30458;SDS011;17254;50.976;7.034;2022-07-01T02:05:00;21.98;;;11.23;;
30458;SDS011;17254;50.976;7.034;2022-07-01T02:05:32;18.90;;;11.55;;
30458;SDS011;17254;50.976;7.034;2022-07-01T02:06:06;14.93;;;10.15;;
30458;SDS011;17254;50.976;7.034;2022-07-01T02:06:41;20.08;;;11.23;;
30458;SDS011;17254;50.976;7.034;2022-07-01T02:07:13;18.88;;;9.93;;
30458;SDS011;17254;50.976;7.034;2022-07-01T02:07:44;20.38;;;10.85;;
30458;SDS011;17254;50.976;7.034;2022-07-01T02:08:15;24.13;;;10.95;;
30458;SDS011;17254;50.976;7.034;2022-07-01T02:08:47;22.00;;;10.18;;
30458;SDS011;17254;50.976;7.034;2022-07-01T02:09:18;20.50;;;11.25;;
30458;SDS011;17254;50.976;7.034;2022-07-01T02:09:50;18.08;;;10.85;;
30458;SDS011;17254;50.976;7.034;2022-07-01T02:10:22;20.00;;;10.30;;
30458;SDS011;17254;50.976;7.034;2022-07-01T02:10:53;24.65;;;11.45;;
30458;SDS011;17254;50.976;7.034;2022-07-01T02:11:24;18.50;;;11.30;;
30458;SDS011;17254;50.976;7.034;2022-07-01T02:11:56;16.27;;;10.05;;
30458;SDS011;17254;50.976;7.034;2022-07-01T02:12:27;21.92;;;10.40;;
30458;SDS011;17254;50.976;7.034;2022-07-01T02:12:58;20.77;;;10.70;;
30458;SDS011;17254;50.976;7.034;2022-07-01T02:13:30;21.00;;;10.80;;
30458;SDS011;17254;50.976;7.034;2022-07-01T02:14:02;18.95;;;10.88;;
30458;SDS011;17254;50.976;7.034;2022-07-01T02:14:33;18.38;;;10.85;;
30458;SDS011;17254;50.976;7.034;2022-07-01T02:15:05;20.20;;;10.63;;
30458;SDS011;17254;50.976;7.034;2022-07-01T02:15:38;19.20;;;10.25;;
30458;SDS011;17254;50.976;7.034;2022-07-01T02:16:10;18.52;;;10.05;;
30458;SDS011;17254;50.976;7.034;2022-07-01T02:16:42;14.95;;;9.27;;
30458;SDS011;17254;50.976;7.034;2022-07-01T02:17:13;14.35;;;9.80;;
30458;SDS011;17254;50.976;7.034;2022-07-01T02:17:44;15.82;;;9.18;;
30458;SDS011;17254;50.976;7.034;2022-07-01T02:18:16;18.92;;;9.48;;
30458;SDS011;17254;50.976;7.034;2022-07-01T02:18:47;15.45;;;8.80;;
30458;SDS011;17254;50.976;7.034;2022-07-01T02:19:19;20.05;;;9.10;;
30458;SDS011;17254;50.976;7.034;2022-07-01T02:19:51;16.80;;;9.45;;
30458;SDS011;17254;50.976;7.034;2022-07-01T02:20:22;10.93;;;7.15;;
30458;SDS011;17254;50.976;7.034;2022-07-01T02:20:53;11.95;;;7.30;;
30458;SDS011;17254;50.976;7.034;2022-07-01T02:21:25;12.43;;;7.60;;
30458;SDS011;17254;50.976;7.034;2022-07-01T02:21:58;17.83;;;8.88;;
30458;SDS011;17254;50.976;7.034;2022-07-01T02:22:29;14.15;;;7.22;;
30458;SDS011;17254;50.976;7.034;2022-07-01T02:23:01;13.52;;;7.72;;
30458;SDS011;17254;50.976;7.034;2022-07-01T02:23:32;16.27;;;8.75;;
30458;SDS011;17254;50.976;7.034;2022-07-01T02:24:04;13.93;;;8.02;;
30458;SDS011;17254;50.976;7.034;2022-07-01T02:24:36;11.13;;;6.53;;
30458;SDS011;17254;50.976;7.034;2022-07-01T02:25:07;13.60;;;7.07;;
30458;SDS011;17254;50.976;7.034;2022-07-01T02:25:40;12.00;;;7.18;;
30458;SDS011;17254;50.976;7.034;2022-07-01T02:26:12;11.50;;;7.15;;
30458;SDS011;17254;50.976;7.034;2022-07-01T02:26:44;14.68;;;7.82;;
30458;SDS011;17254;50.976;7.034;2022-07-01T02:27:14;14.07;;;6.88;;
30458;SDS011;17254;50.976;7.034;2022-07-01T02:27:45;15.20;;;7.55;;
30458;SDS011;17254;50.976;7.034;2022-07-01T02:28:18;11.68;;;6.70;;
30458;SDS011;17254;50.976;7.034;2022-07-01T02:28:49;14.10;;;7.45;;
30458;SDS011;17254;50.976;7.034;2022-07-01T02:29:20;14.27;;;6.57;;
30458;SDS011;17254;50.976;7.034;2022-07-01T02:29:52;12.07;;;7.15;;
30458;SDS011;17254;50.976;7.034;2022-07-01T02:30:24;12.68;;;6.78;;
30458;SDS011;17254;50.976;7.034;2022-07-01T02:30:55;12.77;;;6.75;;
30458;SDS011;17254;50.976;7.034;2022-07-01T02:31:27;12.85;;;6.40;;
30458;SDS011;17254;50.976;7.034;2022-07-01T02:31:58;12.35;;;6.25;;
30458;SDS011;17254;50.976;7.034;2022-07-01T02:32:29;15.55;;;6.28;;
30458;SDS011;17254;50.976;7.034;2022-07-01T02:33:01;12.70;;;5.93;;
30458;SDS011;17254;50.976;7.034;2022-07-01T02:33:32;13.30;;;6.47;;
30458;SDS011;17254;50.976;7.034;2022-07-01T02:34:04;12.25;;;6.80;;
30458;SDS011;17254;50.976;7.034;2022-07-01T02:34:36;12.38;;;6.05;;
30458;SDS011;17254;50.976;7.034;2022-07-01T02:35:07;11.93;;;6.15;;
30458;SDS011;17254;50.976;7.034;2022-07-01T02:35:39;10.43;;;6.25;;
30458;SDS011;17254;50.976;7.034;2022-07-01T02:36:12;10.95;;;5.72;;
30458;SDS011;17254;50.976;7.034;2022-07-01T02:36:43;7.40;;;5.85;;
30458;SDS011;17254;50.976;7.034;2022-07-01T02:37:16;8.98;;;6.10;;
30458;SDS011;17254;50.976;7.034;2022-07-01T02:37:48;13.68;;;5.28;;
30458;SDS011;17254;50.976;7.034;2022-07-01T02:38:19;8.27;;;5.55;;
30458;SDS011;17254;50.976;7.034;2022-07-01T02:38:50;9.40;;;5.38;;
30458;SDS011;17254;50.976;7.034;2022-07-01T02:39:22;10.65;;;4.97;;
30458;SDS011;17254;50.976;7.034;2022-07-01T02:39:53;9.88;;;5.32;;
30458;SDS011;17254;50.976;7.034;2022-07-01T02:40:24;8.25;;;4.53;;
30458;SDS011;17254;50.976;7.034;2022-07-01T02:40:56;7.72;;;4.88;;
30458;SDS011;17254;50.976;7.034;2022-07-01T02:41:28;8.90;;;4.93;;
30458;SDS011;17254;50.976;7.034;2022-07-01T02:41:59;8.57;;;5.28;;
30458;SDS011;17254;50.976;7.034;2022-07-01T02:42:49;8.38;;;5.10;;
30458;SDS011;17254;50.976;7.034;2022-07-01T02:43:21;8.02;;;4.63;;
30458;SDS011;17254;50.976;7.034;2022-07-01T02:43:51;9.60;;;5.70;;
30458;SDS011;17254;50.976;7.034;2022-07-01T02:44:23;6.28;;;4.78;;
30458;SDS011;17254;50.976;7.034;2022-07-01T02:44:54;7.93;;;5.53;;
30458;SDS011;17254;50.976;7.034;2022-07-01T02:45:26;7.90;;;5.07;;
30458;SDS011;17254;50.976;7.034;2022-07-01T02:45:57;6.22;;;4.90;;
30458;SDS011;17254;50.976;7.034;2022-07-01T02:46:28;9.73;;;4.88;;
30458;SDS011;17254;50.976;7.034;2022-07-01T02:47:00;13.52;;;5.15;;
30458;SDS011;17254;50.976;7.034;2022-07-01T02:47:31;10.27;;;4.85;;
30458;SDS011;17254;50.976;7.034;2022-07-01T02:48:04;10.75;;;5.05;;
30458;SDS011;17254;50.976;7.034;2022-07-01T02:48:36;16.70;;;5.15;;
30458;SDS011;17254;50.976;7.034;2022-07-01T02:49:07;8.77;;;4.55;;
30458;SDS011;17254;50.976;7.034;2022-07-01T02:49:38;8.80;;;4.63;;
30458;SDS011;17254;50.976;7.034;2022-07-01T02:50:10;11.55;;;5.80;;
30458;SDS011;17254;50.976;7.034;2022-07-01T02:50:43;14.93;;;5.65;;
30458;SDS011;17254;50.976;7.034;2022-07-01T02:51:14;6.72;;;4.07;;
30458;SDS011;17254;50.976;7.034;2022-07-01T02:51:45;9.35;;;4.60;;
30458;SDS011;17254;50.976;7.034;2022-07-01T02:52:17;6.47;;;3.58;;
30458;SDS011;17254;50.976;7.034;2022-07-01T02:52:49;9.80;;;4.53;;
30458;SDS011;17254;50.976;7.034;2022-07-01T02:53:20;10.30;;;3.85;;
30458;SDS011;17254;50.976;7.034;2022-07-01T02:53:51;7.05;;;4.03;;
30458;SDS011;17254;50.976;7.034;2022-07-01T02:54:23;6.20;;;4.35;;
30458;SDS011;17254;50.976;7.034;2022-07-01T02:54:54;8.07;;;3.25;;
30458;SDS011;17254;50.976;7.034;2022-07-01T02:55:26;6.85;;;3.70;;
30458;SDS011;17254;50.976;7.034;2022-07-01T02:55:59;7.22;;;4.03;;
30458;SDS011;17254;50.976;7.034;2022-07-01T02:56:30;9.80;;;4.63;;
30458;SDS011;17254;50.976;7.034;2022-07-01T02:57:01;8.80;;;4.28;;
30458;SDS011;17254;50.976;7.034;2022-07-01T02:57:33;8.50;;;3.90;;
30458;SDS011;17254;50.976;7.034;2022-07-01T02:58:04;7.25;;;3.78;;
30458;SDS011;17254;50.976;7.034;2022-07-01T02:58:36;5.43;;;3.50;;
30458;SDS011;17254;50.976;7.034;2022-07-01T02:59:07;11.45;;;4.05;;
30458;SDS011;17254;50.976;7.034;2022-07-01T02:59:38;5.53;;;3.80;;
30458;SDS011;17254;50.976;7.034;2022-07-01T03:00:10;10.32;;;3.92;;
30458;SDS011;17254;50.976;7.034;2022-07-01T03:00:44;8.88;;;4.43;;
30458;SDS011;17254;50.976;7.034;2022-07-01T03:01:15;6.40;;;4.07;;
30458;SDS011;17254;50.976;7.034;2022-07-01T03:01:46;10.38;;;3.80;;
30458;SDS011;17254;50.976;7.034;2022-07-01T03:02:18;7.10;;;3.60;;
30458;SDS011;17254;50.976;7.034;2022-07-01T03:02:50;10.10;;;4.63;;
30458;SDS011;17254;50.976;7.034;2022-07-01T03:03:21;11.40;;;4.53;;
30458;SDS011;17254;50.976;7.034;2022-07-01T03:03:53;10.40;;;4.55;;
30458;SDS011;17254;50.976;7.034;2022-07-01T03:04:24;10.85;;;4.30;;
30458;SDS011;17254;50.976;7.034;2022-07-01T03:04:55;8.18;;;3.70;;
30458;SDS011;17254;50.976;7.034;2022-07-01T03:05:27;7.13;;;3.88;;
30458;SDS011;17254;50.976;7.034;2022-07-01T03:05:58;7.57;;;3.90;;
30458;SDS011;17254;50.976;7.034;2022-07-01T03:06:29;8.98;;;4.07;;
30458;SDS011;17254;50.976;7.034;2022-07-01T03:07:01;11.80;;;4.00;;
30458;SDS011;17254;50.976;7.034;2022-07-01T03:07:33;7.32;;;3.72;;
30458;SDS011;17254;50.976;7.034;2022-07-01T03:08:05;8.77;;;3.85;;
30458;SDS011;17254;50.976;7.034;2022-07-01T03:08:37;8.07;;;3.17;;
30458;SDS011;17254;50.976;7.034;2022-07-01T03:09:08;7.93;;;3.65;;